DLH125 EDDH-LOWI
Flight info
| Callsign | DLH125 |
|---|---|
| Flight time | 1h 3m |
| Altitude | 31000 |
| Route | AMLUH2C AMLUH M852 DENIX DCT ZUCKA DCT GALMA M736 TABAT/N0454F370 M736 AKOSI/N0447F310 M736 RDG/N0448F300 M736 DOSEL/N0452F310 M736 TULSI TULSI3A |
| Aircraft | A320/M-SDE3FGHIRWY/LB1 |
Departure
| Time | 2026-04-21 00:28 |
|---|---|
| Airport | Hamburg Helmut Schmidt Airport (EDDH) |
Arrival
| Time | 2026-04-21 01:31 |
|---|---|
| Airport | Innsbruck Airport (LOWI) |
| Time | Latitude | Longitude | Altitude | Speed | Heading |
|---|---|---|---|---|---|
| 2026-04-20 23:57 | 53.63112 | 10.00381 | 49 ft | 0 kts | 87° |
| 2026-04-21 00:17 | 53.63111 | 10.00360 | 47 ft | 4 kts | 87° |
| 2026-04-21 00:17 | 53.63111 | 10.00333 | 43 ft | 4 kts | 87° |
| 2026-04-21 00:18 | 53.63112 | 10.00285 | 43 ft | 4 kts | 112° |
| 2026-04-21 00:18 | 53.63127 | 10.00258 | 42 ft | 2 kts | 174° |
| 2026-04-21 00:18 | 53.63129 | 10.00257 | 43 ft | 0 kts | 176° |
| 2026-04-21 00:21 | 53.63106 | 10.00260 | 45 ft | 9 kts | 176° |
| 2026-04-21 00:22 | 53.63020 | 10.00214 | 46 ft | 11 kts | 211° |
| 2026-04-21 00:22 | 53.63016 | 10.00210 | 47 ft | 2 kts | 211° |
| 2026-04-21 00:22 | 53.62993 | 10.00184 | 46 ft | 10 kts | 213° |
| 2026-04-21 00:22 | 53.62950 | 10.00137 | 48 ft | 9 kts | 214° |
| 2026-04-21 00:23 | 53.62923 | 10.00107 | 48 ft | 3 kts | 213° |
| 2026-04-21 00:23 | 53.62873 | 10.00047 | 47 ft | 8 kts | 221° |
| 2026-04-21 00:23 | 53.62813 | 9.99971 | 47 ft | 17 kts | 213° |
| 2026-04-21 00:23 | 53.62711 | 9.99877 | 44 ft | 16 kts | 209° |
| 2026-04-21 00:24 | 53.62639 | 9.99764 | 47 ft | 16 kts | 254° |
| 2026-04-21 00:24 | 53.62614 | 9.99553 | 47 ft | 23 kts | 259° |
| 2026-04-21 00:24 | 53.62580 | 9.99254 | 47 ft | 28 kts | 259° |
| 2026-04-21 00:24 | 53.62553 | 9.99018 | 47 ft | 23 kts | 259° |
| 2026-04-21 00:25 | 53.62527 | 9.98782 | 47 ft | 18 kts | 260° |
| 2026-04-21 00:25 | 53.62500 | 9.98542 | 47 ft | 6 kts | 259° |
| 2026-04-21 00:25 | 53.62484 | 9.98401 | 47 ft | 18 kts | 259° |
| 2026-04-21 00:25 | 53.62455 | 9.98153 | 47 ft | 24 kts | 259° |
| 2026-04-21 00:26 | 53.62436 | 9.97979 | 47 ft | 17 kts | 258° |
| 2026-04-21 00:26 | 53.62426 | 9.97880 | 45 ft | 8 kts | 264° |
| 2026-04-21 00:26 | 53.62465 | 9.97792 | 41 ft | 9 kts | 319° |
| 2026-04-21 00:26 | 53.62518 | 9.97765 | 41 ft | 10 kts | 46° |
| 2026-04-21 00:27 | 53.62608 | 9.97952 | 41 ft | 47 kts | 51° |
| 2026-04-21 00:27 | 53.62943 | 9.98634 | 45 ft | 111 kts | 50° |
| 2026-04-21 00:27 | 53.63557 | 9.99866 | 54 ft | 161 kts | 49° |
| 2026-04-21 00:27 | 53.64282 | 10.01388 | 612 ft | 170 kts | 51° |
| 2026-04-21 00:28 | 53.65059 | 10.02951 | 1339 ft | 177 kts | 51° |
| 2026-04-21 00:28 | 53.65910 | 10.04491 | 2057 ft | 183 kts | 52° |
| 2026-04-21 00:28 | 53.66688 | 10.06028 | 2876 ft | 186 kts | 54° |
| 2026-04-21 00:28 | 53.67512 | 10.07754 | 3712 ft | 191 kts | 54° |
| 2026-04-21 00:29 | 53.68357 | 10.09529 | 4530 ft | 196 kts | 54° |
| 2026-04-21 00:29 | 53.69225 | 10.11343 | 5340 ft | 202 kts | 53° |
| 2026-04-21 00:29 | 53.70038 | 10.13289 | 6137 ft | 205 kts | 67° |
| 2026-04-21 00:29 | 53.70345 | 10.15481 | 6882 ft | 208 kts | 88° |
| 2026-04-21 00:30 | 53.70064 | 10.17900 | 7637 ft | 217 kts | 111° |
| 2026-04-21 00:30 | 53.69098 | 10.20045 | 8034 ft | 248 kts | 139° |
| 2026-04-21 00:30 | 53.67434 | 10.21280 | 8511 ft | 275 kts | 161° |
| 2026-04-21 00:30 | 53.65611 | 10.22089 | 9264 ft | 282 kts | 161° |
| 2026-04-21 00:31 | 53.63749 | 10.22908 | 10114 ft | 287 kts | 161° |
| 2026-04-21 00:31 | 53.61747 | 10.23799 | 10529 ft | 309 kts | 161° |
| 2026-04-21 00:31 | 53.59587 | 10.24772 | 10790 ft | 333 kts | 161° |
| 2026-04-21 00:31 | 53.57297 | 10.25806 | 11261 ft | 347 kts | 161° |
| 2026-04-21 00:32 | 53.55123 | 10.26783 | 11926 ft | 352 kts | 161° |
| 2026-04-21 00:32 | 53.52754 | 10.27847 | 12691 ft | 356 kts | 161° |
| 2026-04-21 00:32 | 53.50333 | 10.28931 | 13470 ft | 360 kts | 161° |
| 2026-04-21 00:32 | 53.47898 | 10.30018 | 14224 ft | 364 kts | 161° |
| 2026-04-21 00:33 | 53.45604 | 10.31042 | 14844 ft | 368 kts | 161° |
| 2026-04-21 00:33 | 53.43117 | 10.32144 | 15507 ft | 372 kts | 163° |
| 2026-04-21 00:33 | 53.40549 | 10.32942 | 16156 ft | 377 kts | 166° |
| 2026-04-21 00:33 | 53.37947 | 10.33697 | 16795 ft | 381 kts | 166° |
| 2026-04-21 00:34 | 53.35320 | 10.34458 | 17434 ft | 385 kts | 166° |
| 2026-04-21 00:34 | 53.32842 | 10.35173 | 18012 ft | 389 kts | 166° |
| 2026-04-21 00:34 | 53.30165 | 10.35943 | 18625 ft | 393 kts | 166° |
| 2026-04-21 00:34 | 53.27489 | 10.36712 | 19150 ft | 396 kts | 166° |
| 2026-04-21 00:35 | 53.24762 | 10.37496 | 19693 ft | 399 kts | 166° |
| 2026-04-21 00:35 | 53.22191 | 10.38232 | 20200 ft | 402 kts | 166° |
| 2026-04-21 00:35 | 53.19418 | 10.39022 | 20742 ft | 405 kts | 167° |
| 2026-04-21 00:35 | 53.16631 | 10.39818 | 21276 ft | 408 kts | 167° |
| 2026-04-21 00:36 | 53.13824 | 10.40624 | 21796 ft | 411 kts | 167° |
| 2026-04-21 00:36 | 53.11001 | 10.41435 | 22308 ft | 414 kts | 167° |
| 2026-04-21 00:36 | 53.08354 | 10.42194 | 22784 ft | 416 kts | 167° |
| 2026-04-21 00:36 | 53.05487 | 10.43016 | 23290 ft | 419 kts | 167° |
| 2026-04-21 00:37 | 53.02597 | 10.43842 | 23778 ft | 422 kts | 167° |
| 2026-04-21 00:37 | 52.99690 | 10.44668 | 24186 ft | 425 kts | 167° |
| 2026-04-21 00:37 | 52.96774 | 10.45496 | 24586 ft | 428 kts | 167° |
| 2026-04-21 00:37 | 52.94012 | 10.46278 | 24959 ft | 430 kts | 167° |
| 2026-04-21 00:38 | 52.91052 | 10.47111 | 25347 ft | 433 kts | 167° |
| 2026-04-21 00:38 | 52.88094 | 10.47940 | 25740 ft | 435 kts | 167° |
| 2026-04-21 00:38 | 52.85080 | 10.48785 | 26117 ft | 438 kts | 168° |
| 2026-04-21 00:38 | 52.82065 | 10.49638 | 26497 ft | 440 kts | 168° |
| 2026-04-21 00:39 | 52.79238 | 10.50442 | 26846 ft | 442 kts | 168° |
| 2026-04-21 00:39 | 52.76189 | 10.51308 | 27225 ft | 445 kts | 168° |
| 2026-04-21 00:39 | 52.73131 | 10.52174 | 27577 ft | 448 kts | 168° |
| 2026-04-21 00:39 | 52.70054 | 10.53039 | 27926 ft | 450 kts | 168° |
| 2026-04-21 00:40 | 52.66955 | 10.53901 | 28267 ft | 452 kts | 168° |
| 2026-04-21 00:40 | 52.64048 | 10.54706 | 28579 ft | 455 kts | 168° |
| 2026-04-21 00:40 | 52.60928 | 10.55573 | 28895 ft | 457 kts | 168° |
| 2026-04-21 00:40 | 52.57788 | 10.56448 | 29221 ft | 459 kts | 168° |
| 2026-04-21 00:41 | 52.54634 | 10.57329 | 29541 ft | 461 kts | 168° |
| 2026-04-21 00:41 | 52.51455 | 10.58215 | 29846 ft | 464 kts | 169° |
| 2026-04-21 00:41 | 52.48531 | 10.59028 | 30126 ft | 466 kts | 169° |
| 2026-04-21 00:41 | 52.45297 | 10.59928 | 30522 ft | 465 kts | 169° |
| 2026-04-21 00:42 | 52.42146 | 10.60802 | 30873 ft | 465 kts | 169° |
| 2026-04-21 00:42 | 52.38953 | 10.61686 | 31171 ft | 465 kts | 169° |
| 2026-04-21 00:42 | 52.36019 | 10.62495 | 31249 ft | 463 kts | 169° |
| 2026-04-21 00:43 | 52.29702 | 10.64233 | 31256 ft | 459 kts | 169° |
| 2026-04-21 00:43 | 52.23413 | 10.65969 | 31252 ft | 458 kts | 169° |
| 2026-04-21 00:44 | 52.17343 | 10.67635 | 31252 ft | 458 kts | 169° |
| 2026-04-21 00:44 | 52.11042 | 10.69362 | 31255 ft | 458 kts | 169° |
| 2026-04-21 00:45 | 52.01823 | 10.71866 | 31244 ft | 458 kts | 169° |
| 2026-04-21 00:45 | 51.95531 | 10.73560 | 31239 ft | 458 kts | 170° |
| 2026-04-21 00:46 | 51.89466 | 10.75192 | 31233 ft | 458 kts | 170° |
| 2026-04-21 00:46 | 51.83192 | 10.76885 | 31231 ft | 458 kts | 169° |
| 2026-04-21 00:47 | 51.76948 | 10.78574 | 31225 ft | 458 kts | 169° |
| 2026-04-21 00:47 | 51.70843 | 10.80214 | 31218 ft | 458 kts | 170° |
| 2026-04-21 00:48 | 51.64558 | 10.81889 | 31211 ft | 458 kts | 170° |
| 2026-04-21 00:48 | 51.58519 | 10.83495 | 31206 ft | 458 kts | 170° |
| 2026-04-21 00:49 | 51.52235 | 10.85172 | 31203 ft | 458 kts | 170° |
| 2026-04-21 00:49 | 51.46161 | 10.86798 | 31200 ft | 458 kts | 170° |
| 2026-04-21 00:50 | 51.39879 | 10.88461 | 31198 ft | 458 kts | 170° |
| 2026-04-21 00:50 | 51.33577 | 10.90114 | 31190 ft | 458 kts | 170° |
| 2026-04-21 00:51 | 51.27524 | 10.91712 | 31190 ft | 458 kts | 170° |
| 2026-04-21 00:51 | 51.21236 | 10.93369 | 31190 ft | 458 kts | 170° |
| 2026-04-21 00:52 | 51.15264 | 10.94921 | 31190 ft | 458 kts | 171° |
| 2026-04-21 00:52 | 51.08970 | 10.96559 | 31183 ft | 458 kts | 170° |
| 2026-04-21 00:53 | 51.02682 | 10.98203 | 31182 ft | 458 kts | 171° |
| 2026-04-21 00:53 | 50.96655 | 10.99775 | 31184 ft | 458 kts | 171° |
| 2026-04-21 00:54 | 50.90360 | 11.01408 | 31184 ft | 458 kts | 171° |
| 2026-04-21 00:54 | 50.84285 | 11.02981 | 31178 ft | 458 kts | 171° |
| 2026-04-21 00:55 | 50.77994 | 11.04599 | 31178 ft | 458 kts | 171° |
| 2026-04-21 00:55 | 50.71954 | 11.06140 | 31173 ft | 458 kts | 171° |
| 2026-04-21 00:56 | 50.65650 | 11.07754 | 31169 ft | 458 kts | 171° |
| 2026-04-21 00:56 | 50.59342 | 11.09373 | 31164 ft | 459 kts | 171° |
| 2026-04-21 00:57 | 50.53281 | 11.10911 | 31158 ft | 459 kts | 171° |
| 2026-04-21 00:57 | 50.46964 | 11.12516 | 31161 ft | 459 kts | 171° |
| 2026-04-21 00:58 | 50.40891 | 11.14055 | 31161 ft | 459 kts | 171° |
| 2026-04-21 00:58 | 50.34554 | 11.15665 | 31161 ft | 459 kts | 171° |
| 2026-04-21 00:59 | 50.28274 | 11.17246 | 31159 ft | 459 kts | 171° |
| 2026-04-21 00:59 | 50.22349 | 11.18726 | 31157 ft | 459 kts | 171° |
| 2026-04-21 01:00 | 50.15922 | 11.20338 | 31157 ft | 458 kts | 171° |
| 2026-04-21 01:00 | 50.09865 | 11.21851 | 31158 ft | 458 kts | 171° |
| 2026-04-21 01:01 | 50.03558 | 11.23414 | 31152 ft | 458 kts | 171° |
| 2026-04-21 01:01 | 49.97266 | 11.24983 | 31150 ft | 458 kts | 171° |
| 2026-04-21 01:02 | 49.91277 | 11.26481 | 31143 ft | 457 kts | 172° |
| 2026-04-21 01:02 | 49.85021 | 11.28033 | 31145 ft | 457 kts | 172° |
| 2026-04-21 01:03 | 49.79093 | 11.29481 | 31141 ft | 457 kts | 172° |
| 2026-04-21 01:03 | 49.72805 | 11.31022 | 31142 ft | 456 kts | 172° |
| 2026-04-21 01:04 | 49.67584 | 11.32317 | 31140 ft | 456 kts | 172° |
| 2026-04-21 01:04 | 49.61502 | 11.33824 | 31141 ft | 457 kts | 172° |
| 2026-04-21 01:05 | 49.55219 | 11.35356 | 31137 ft | 457 kts | 173° |
| 2026-04-21 01:05 | 49.49107 | 11.36841 | 31138 ft | 457 kts | 173° |
| 2026-04-21 01:06 | 49.42817 | 11.38373 | 31138 ft | 458 kts | 173° |
| 2026-04-21 01:06 | 49.36661 | 11.39870 | 31136 ft | 458 kts | 173° |
| 2026-04-21 01:07 | 49.30385 | 11.41377 | 31127 ft | 459 kts | 173° |
| 2026-04-21 01:07 | 49.24224 | 11.42865 | 31110 ft | 460 kts | 174° |
| 2026-04-21 01:08 | 49.17994 | 11.44367 | 31105 ft | 461 kts | 174° |
| 2026-04-21 01:08 | 49.11689 | 11.45885 | 31101 ft | 461 kts | 174° |
| 2026-04-21 01:09 | 49.05587 | 11.47350 | 31102 ft | 462 kts | 174° |
| 2026-04-21 01:09 | 48.99224 | 11.48866 | 31107 ft | 463 kts | 174° |
| 2026-04-21 01:10 | 48.93063 | 11.50328 | 31104 ft | 463 kts | 175° |
| 2026-04-21 01:10 | 48.86684 | 11.51841 | 31110 ft | 464 kts | 175° |
| 2026-04-21 01:11 | 48.80301 | 11.53356 | 31111 ft | 465 kts | 175° |
| 2026-04-21 01:11 | 48.74774 | 11.54670 | 31109 ft | 465 kts | 175° |
| 2026-04-21 01:12 | 48.68368 | 11.56180 | 31110 ft | 466 kts | 176° |
| 2026-04-21 01:12 | 48.62146 | 11.57648 | 31107 ft | 466 kts | 176° |
| 2026-04-21 01:13 | 48.55727 | 11.59163 | 31109 ft | 467 kts | 176° |
| 2026-04-21 01:13 | 48.49302 | 11.60655 | 31107 ft | 468 kts | 176° |
| 2026-04-21 01:14 | 48.43101 | 11.62101 | 31106 ft | 468 kts | 177° |
| 2026-04-21 01:14 | 48.36653 | 11.63606 | 31106 ft | 470 kts | 177° |
| 2026-04-21 01:15 | 48.33411 | 11.64357 | 30473 ft | 475 kts | 177° |
| 2026-04-21 01:15 | 48.30335 | 11.65066 | 29350 ft | 480 kts | 177° |
| 2026-04-21 01:15 | 48.27112 | 11.65824 | 28692 ft | 460 kts | 177° |
| 2026-04-21 01:15 | 48.24009 | 11.66560 | 27938 ft | 445 kts | 177° |
| 2026-04-21 01:16 | 48.20955 | 11.67276 | 27234 ft | 443 kts | 177° |
| 2026-04-21 01:16 | 48.18117 | 11.67929 | 26558 ft | 442 kts | 176° |
| 2026-04-21 01:16 | 48.15077 | 11.68621 | 25834 ft | 440 kts | 176° |
| 2026-04-21 01:16 | 48.12052 | 11.69310 | 25147 ft | 439 kts | 176° |
| 2026-04-21 01:17 | 48.09038 | 11.69998 | 24461 ft | 437 kts | 176° |
| 2026-04-21 01:17 | 48.06034 | 11.70686 | 23764 ft | 436 kts | 176° |
| 2026-04-21 01:17 | 48.03260 | 11.71325 | 23061 ft | 434 kts | 175° |
| 2026-04-21 01:17 | 48.00299 | 11.72007 | 22435 ft | 429 kts | 176° |
| 2026-04-21 01:18 | 47.97369 | 11.72683 | 21814 ft | 425 kts | 176° |
| 2026-04-21 01:18 | 47.94459 | 11.73351 | 21227 ft | 420 kts | 176° |
| 2026-04-21 01:18 | 47.91583 | 11.74013 | 20651 ft | 415 kts | 176° |
| 2026-04-21 01:18 | 47.88912 | 11.74628 | 20155 ft | 411 kts | 176° |
| 2026-04-21 01:19 | 47.86099 | 11.75272 | 19601 ft | 407 kts | 176° |
| 2026-04-21 01:19 | 47.83313 | 11.75904 | 19090 ft | 403 kts | 176° |
| 2026-04-21 01:19 | 47.80561 | 11.76527 | 18571 ft | 399 kts | 175° |
| 2026-04-21 01:19 | 47.77815 | 11.77148 | 18019 ft | 396 kts | 175° |
| 2026-04-21 01:20 | 47.75275 | 11.77724 | 17522 ft | 392 kts | 175° |
| 2026-04-21 01:20 | 47.72584 | 11.78336 | 17014 ft | 389 kts | 175° |
| 2026-04-21 01:20 | 47.69939 | 11.79104 | 16501 ft | 389 kts | 168° |
| 2026-04-21 01:20 | 47.67382 | 11.80431 | 15975 ft | 389 kts | 162° |
| 2026-04-21 01:21 | 47.64866 | 11.81852 | 15430 ft | 385 kts | 162° |
| 2026-04-21 01:21 | 47.62525 | 11.83168 | 14922 ft | 384 kts | 162° |
| 2026-04-21 01:21 | 47.60023 | 11.84570 | 14360 ft | 384 kts | 162° |
| 2026-04-21 01:21 | 47.57527 | 11.85966 | 13784 ft | 383 kts | 161° |
| 2026-04-21 01:22 | 47.55037 | 11.87357 | 13159 ft | 381 kts | 161° |
| 2026-04-21 01:22 | 47.52561 | 11.88736 | 12588 ft | 379 kts | 162° |
| 2026-04-21 01:22 | 47.50324 | 11.89978 | 12048 ft | 376 kts | 161° |
| 2026-04-21 01:22 | 47.48201 | 11.91154 | 11557 ft | 373 kts | 162° |
| 2026-04-21 01:23 | 47.45715 | 11.92175 | 10940 ft | 368 kts | 174° |
| 2026-04-21 01:23 | 47.43221 | 11.92283 | 10763 ft | 349 kts | 188° |
| 2026-04-21 01:23 | 47.41019 | 11.91660 | 10690 ft | 331 kts | 200° |
| 2026-04-21 01:23 | 47.38984 | 11.90388 | 10563 ft | 314 kts | 213° |
| 2026-04-21 01:24 | 47.37145 | 11.88771 | 10422 ft | 302 kts | 214° |
| 2026-04-21 01:24 | 47.35387 | 11.87166 | 10280 ft | 291 kts | 219° |
| 2026-04-21 01:24 | 47.33960 | 11.85157 | 10153 ft | 277 kts | 235° |
| 2026-04-21 01:24 | 47.33046 | 11.83004 | 9934 ft | 268 kts | 248° |
| 2026-04-21 01:25 | 47.32473 | 11.80512 | 9525 ft | 265 kts | 260° |
| 2026-04-21 01:25 | 47.32113 | 11.77866 | 9019 ft | 268 kts | 260° |
| 2026-04-21 01:25 | 47.31715 | 11.75180 | 8735 ft | 265 kts | 255° |
| 2026-04-21 01:25 | 47.31203 | 11.72624 | 8602 ft | 255 kts | 257° |
| 2026-04-21 01:26 | 47.30819 | 11.70268 | 8345 ft | 251 kts | 258° |
| 2026-04-21 01:26 | 47.30433 | 11.67751 | 7944 ft | 253 kts | 258° |
| 2026-04-21 01:26 | 47.30053 | 11.65228 | 7495 ft | 249 kts | 258° |
| 2026-04-21 01:26 | 47.29646 | 11.62782 | 6833 ft | 243 kts | 256° |
| 2026-04-21 01:27 | 47.29207 | 11.60459 | 6140 ft | 230 kts | 253° |
| 2026-04-21 01:27 | 47.28791 | 11.58383 | 5366 ft | 220 kts | 254° |
| 2026-04-21 01:27 | 47.28421 | 11.56248 | 4656 ft | 207 kts | 258° |
| 2026-04-21 01:27 | 47.28178 | 11.54259 | 4270 ft | 190 kts | 262° |
| 2026-04-21 01:28 | 47.28009 | 11.52465 | 4087 ft | 166 kts | 262° |
| 2026-04-21 01:28 | 47.27857 | 11.50845 | 3896 ft | 151 kts | 262° |
| 2026-04-21 01:28 | 47.27663 | 11.49474 | 3620 ft | 147 kts | 256° |
| 2026-04-21 01:28 | 47.27465 | 11.48025 | 3359 ft | 143 kts | 261° |
| 2026-04-21 01:29 | 47.27306 | 11.46582 | 3076 ft | 141 kts | 262° |
| 2026-04-21 01:29 | 47.27182 | 11.45161 | 2915 ft | 140 kts | 262° |
| 2026-04-21 01:29 | 47.27038 | 11.43738 | 2768 ft | 140 kts | 261° |
| 2026-04-21 01:29 | 47.26887 | 11.42440 | 2679 ft | 139 kts | 260° |
| 2026-04-21 01:30 | 47.26740 | 11.41024 | 2530 ft | 140 kts | 261° |
| 2026-04-21 01:30 | 47.26589 | 11.39610 | 2409 ft | 139 kts | 262° |
| 2026-04-21 01:30 | 47.26428 | 11.38200 | 2236 ft | 139 kts | 260° |
| 2026-04-21 01:30 | 47.26279 | 11.36815 | 2070 ft | 139 kts | 261° |
| 2026-04-21 01:31 | 47.26136 | 11.35491 | 1932 ft | 138 kts | 261° |
| 2026-04-21 01:31 | 47.26020 | 11.34352 | 1899 ft | 75 kts | 261° |
| 2026-04-21 01:31 | 47.25982 | 11.34018 | 1908 ft | 6 kts | 260° |
| 2026-04-21 01:31 | 47.25968 | 11.33900 | 1916 ft | 18 kts | 260° |
| 2026-04-21 01:32 | 47.25946 | 11.33725 | 1917 ft | 9 kts | 256° |
| 2026-04-21 01:32 | 47.25893 | 11.33715 | 1918 ft | 11 kts | 129° |
| 2026-04-21 01:32 | 47.25817 | 11.33865 | 1917 ft | 25 kts | 124° |
| 2026-04-21 01:32 | 47.25756 | 11.34147 | 1909 ft | 34 kts | 81° |
| 2026-04-21 01:33 | 47.25812 | 11.34444 | 1905 ft | 10 kts | 79° |
| 2026-04-21 01:33 | 47.25829 | 11.34606 | 1910 ft | 24 kts | 82° |
| 2026-04-21 01:33 | 47.25847 | 11.34782 | 1904 ft | 14 kts | 81° |
| 2026-04-21 01:33 | 47.25863 | 11.34927 | 1908 ft | 18 kts | 81° |
| 2026-04-21 01:34 | 47.25869 | 11.34989 | 1902 ft | 2 kts | 81° |
| 2026-04-21 01:34 | 47.25872 | 11.35015 | 1903 ft | 3 kts | 81° |
| 2026-04-21 01:34 | 47.25873 | 11.35023 | 1905 ft | 0 kts | 81° |